Time;durP1;ratioP1;P1;durP2;ratioP2;P2;SDS_P1;SDS_P2;PMS_P1;PMS_P2;Temp;Humidity;BMP_temperature;BMP_pressure;BME280_temperature;BME280_humidity;BME280_pressure;Samples;Min_cycle;Max_cycle;Signal;HPM_P1;HPM_P2
2021/08/06 00:00:34;;;;;;;3.02;2.83;;;;;;;30.00;40.02;98490.53;1740149;80;21614;-52
2021/08/06 00:03:01;;;;;;;2.75;2.55;;;;;;;29.99;40.05;98482.93;1765227;81;23353;-49
2021/08/06 00:05:28;;;;;;;2.90;2.70;;;;;;;29.97;40.07;98491.77;1738878;81;21572;-51
2021/08/06 00:07:55;;;;;;;3.25;3.05;;;;;;;29.97;40.10;98499.08;1741745;81;20971;-51
2021/08/06 00:10:21;;;;;;;2.80;2.60;;;;;;;29.94;40.14;98494.05;1771090;80;20983;-49
2021/08/06 00:12:48;;;;;;;2.98;2.77;;;;;;;29.94;40.14;98494.05;1732242;81;21007;-49
2021/08/06 00:15:14;;;;;;;3.05;2.85;;;;;;;29.91;40.19;98488.53;1770982;81;21089;-51
2021/08/06 00:17:41;;;;;;;3.00;2.80;;;;;;;29.90;40.19;98485.48;1786377;79;21022;-52
2021/08/06 00:20:09;;;;;;;2.62;2.52;;;;;;;29.88;40.22;98480.80;1802512;79;21069;-51
2021/08/06 00:22:36;;;;;;;3.15;2.92;;;;;;;29.87;40.24;98473.69;1743121;81;21636;-51
2021/08/06 00:25:04;;;;;;;2.85;2.65;;;;;;;29.87;40.27;98471.51;1754219;81;21035;-51
2021/08/06 00:27:31;;;;;;;3.12;2.92;;;;;;;29.85;40.33;98477.13;1732814;82;21065;-53
2021/08/06 00:29:58;;;;;;;2.87;2.50;;;;;;;29.83;40.33;98481.92;1747550;81;21457;-51
2021/08/06 00:32:24;;;;;;;2.87;2.67;;;;;;;29.83;40.39;98479.22;1725469;83;21588;-50
2021/08/06 00:34:52;;;;;;;3.10;2.90;;;;;;;29.81;40.41;98460.97;1718951;82;21011;-52
2021/08/06 00:37:20;;;;;;;3.17;2.98;;;;;;;29.80;40.44;98444.37;1761922;80;20967;-51
2021/08/06 00:39:48;;;;;;;3.42;3.12;;;;;;;29.79;40.49;98442.69;1786364;80;21139;-52
2021/08/06 00:42:16;;;;;;;3.15;2.95;;;;;;;29.78;40.52;98445.09;1786148;80;20983;-52
2021/08/06 00:44:43;;;;;;;2.75;2.65;;;;;;;29.76;40.53;98437.66;1786276;79;21548;-51
2021/08/06 00:47:10;;;;;;;3.08;2.87;;;;;;;29.75;40.59;98435.98;1787572;79;21521;-51
2021/08/06 00:49:39;;;;;;;3.27;2.98;;;;;;;29.73;40.62;98434.83;1789456;80;20959;-49
2021/08/06 00:52:07;;;;;;;3.12;2.80;;;;;;;29.72;40.66;98429.60;1766099;80;21098;-52
2021/08/06 00:54:35;;;;;;;3.17;2.98;;;;;;;29.71;40.65;98423.36;1740718;80;21026;-49
2021/08/06 00:57:04;;;;;;;3.40;2.65;;;;;;;29.69;40.70;98422.73;1789565;80;21465;-52
2021/08/06 00:59:33;;;;;;;3.00;2.70;;;;;;;29.69;40.74;98427.30;1789951;79;21061;-52
2021/08/06 01:02:24;;;;;;;3.00;2.80;;;;;;;29.67;40.74;98419.89;1801102;79;21474;-52
2021/08/06 01:05:11;;;;;;;3.25;3.05;;;;;;;29.65;40.78;98411.95;1772841;79;21030;-52
2021/08/06 01:08:13;;;;;;;3.02;2.70;;;;;;;29.63;40.81;98408.09;1796188;79;21062;-52
2021/08/06 01:10:48;;;;;;;2.87;2.67;;;;;;;29.62;40.82;98386.11;1801784;79;21061;-49
2021/08/06 01:13:26;;;;;;;4.10;2.80;;;;;;;29.60;40.85;98365.66;1774310;79;22037;-51
2021/08/06 01:15:54;;;;;;;3.08;2.87;;;;;;;29.58;40.90;98361.80;1738209;82;22160;-52
2021/08/06 01:18:21;;;;;;;3.30;3.00;;;;;;;29.57;40.93;98374.19;1753907;81;21801;-51
2021/08/06 01:20:55;;;;;;;2.95;2.75;;;;;;;29.55;40.97;98366.26;1742124;81;21069;-51
2021/08/06 01:23:34;;;;;;;3.20;3.00;;;;;;;29.55;41.01;98360.84;1741569;81;21339;-52
2021/08/06 01:26:08;;;;;;;2.60;2.50;;;;;;;29.53;40.99;98345.31;1737482;82;21074;-51
2021/08/06 01:28:40;;;;;;;2.90;2.65;;;;;;;29.51;41.02;98348.75;1769449;81;21168;-52
2021/08/06 01:31:07;;;;;;;3.42;2.47;;;;;;;29.50;41.03;98340.29;1770955;81;21074;-49
2021/08/06 01:33:36;;;;;;;7.78;2.98;;;;;;;29.49;41.07;98354.05;1770486;81;20989;-53
2021/08/06 01:36:03;;;;;;;2.98;2.77;;;;;;;29.48;41.11;98334.77;1802718;79;21001;-52
2021/08/06 01:38:30;;;;;;;2.77;2.58;;;;;;;29.46;41.08;98318.19;1802917;79;21527;-49
2021/08/06 01:41:25;;;;;;;2.67;2.50;;;;;;;29.45;41.12;98297.57;1802744;79;21032;-48
2021/08/06 01:44:26;;;;;;;2.90;2.60;;;;;;;29.44;41.13;98267.97;1802575;79;21213;-51
2021/08/06 01:47:08;;;;;;;4.53;3.02;;;;;;;29.43;41.12;98243.25;1775980;79;21056;-52
2021/08/06 01:49:44;;;;;;;4.53;2.70;;;;;;;29.41;41.14;98229.08;1803254;79;21566;-52
2021/08/06 01:52:14;;;;;;;2.77;2.58;;;;;;;29.40;41.16;98217.42;1776021;79;21563;-51
2021/08/06 01:54:42;;;;;;;4.40;2.70;;;;;;;29.39;41.19;98195.95;1803398;79;21049;-50
2021/08/06 01:57:09;;;;;;;4.03;2.52;;;;;;;29.38;41.15;98179.37;1776142;79;21122;-50
2021/08/06 01:59:37;;;;;;;5.15;2.67;;;;;;;29.37;41.16;98161.43;1776304;79;21044;-48
2021/08/06 02:02:04;;;;;;;3.45;2.52;;;;;;;29.36;41.19;98155.72;1785390;79;20994;-52
2021/08/06 02:04:32;;;;;;;2.62;2.42;;;;;;;29.35;41.19;98168.94;1803337;79;21348;-52
2021/08/06 02:07:03;;;;;;;3.30;3.00;;;;;;;29.34;41.23;98206.58;1800203;79;21033;-51
2021/08/06 02:09:32;;;;;;;2.52;2.20;;;;;;;29.34;41.22;98253.98;1770567;81;21094;-51
2021/08/06 02:12:00;;;;;;;3.50;2.65;;;;;;;29.33;41.31;98267.20;1781350;79;20986;-51
2021/08/06 02:14:30;;;;;;;2.50;2.27;;;;;;;29.32;41.30;98262.81;1773175;79;21041;-51
2021/08/06 02:16:56;;;;;;;2.60;2.40;;;;;;;29.33;41.31;98263.97;1802461;79;21509;-45
2021/08/06 02:19:25;;;;;;;2.72;2.50;;;;;;;29.32;41.33;98262.31;1834707;78;21041;-52
2021/08/06 02:21:56;;;;;;;3.50;2.60;;;;;;;29.31;41.29;98254.39;1808661;78;21728;-51
2021/08/06 02:24:23;;;;;;;2.15;2.02;;;;;;;29.30;41.31;98245.94;1789911;79;21029;-52
2021/08/06 02:26:50;;;;;;;2.72;2.52;;;;;;;29.30;41.34;98248.64;1765349;80;21076;-52
2021/08/06 02:29:20;;;;;;;2.45;2.30;;;;;;;29.28;41.34;98259.68;1789823;79;21283;-52
2021/08/06 02:31:46;;;;;;;2.27;2.10;;;;;;;29.28;41.36;98259.16;1789947;80;21006;-53
2021/08/06 02:34:15;;;;;;;2.62;2.37;;;;;;;29.27;41.37;98256.15;1790156;80;21973;-53
2021/08/06 02:36:44;;;;;;;2.77;2.58;;;;;;;29.27;41.40;98252.08;1789882;80;21631;-53
2021/08/06 02:39:17;;;;;;;2.55;2.35;;;;;;;29.26;41.40;98246.34;1790041;80;21006;-53
2021/08/06 02:41:46;;;;;;;2.60;2.40;;;;;;;29.25;41.43;98247.39;1790241;79;21062;-53
2021/08/06 02:44:12;;;;;;;2.72;2.52;;;;;;;29.25;41.43;98233.85;1790329;80;21517;-52
2021/08/06 02:46:39;;;;;;;2.47;2.27;;;;;;;29.24;41.41;98219.98;1790083;80;21092;-52
2021/08/06 02:49:06;;;;;;;2.37;2.20;;;;;;;29.24;41.43;98210.50;1765116;80;21597;-53
2021/08/06 02:51:35;;;;;;;2.70;2.50;;;;;;;29.24;41.46;98208.32;1790093;79;21085;-53
2021/08/06 02:54:01;;;;;;;2.30;2.20;;;;;;;29.23;41.45;98216.95;1790180;80;21473;-54
2021/08/06 02:56:29;;;;;;;4.62;2.47;;;;;;;29.22;41.44;98211.77;1792793;79;21099;-53
2021/08/06 02:58:57;;;;;;;2.25;2.10;;;;;;;29.22;41.47;98209.87;1802897;79;21041;-49
2021/08/06 03:01:25;;;;;;;3.70;2.35;;;;;;;29.22;41.47;98195.51;1811274;78;21049;-52
2021/08/06 03:03:54;;;;;;;2.70;2.47;;;;;;;29.21;41.48;98202.78;1817111;78;22143;-52
2021/08/06 03:06:22;;;;;;;2.92;2.67;;;;;;;29.20;41.50;98210.61;1797035;78;21969;-48
2021/08/06 03:08:49;;;;;;;2.40;2.20;;;;;;;29.21;41.49;98213.61;1769832;81;21116;-52
2021/08/06 03:11:17;;;;;;;2.67;2.30;;;;;;;29.22;41.48;98207.70;1771830;79;21056;-50
2021/08/06 03:13:46;;;;;;;2.30;2.20;;;;;;;29.23;41.45;98202.58;1789972;80;21526;-51
2021/08/06 03:16:14;;;;;;;2.37;2.17;;;;;;;29.22;41.45;98185.50;1790245;80;21462;-51
2021/08/06 03:18:43;;;;;;;2.50;2.30;;;;;;;29.21;41.42;98183.82;1790019;80;21081;-50
2021/08/06 03:21:09;;;;;;;2.50;2.30;;;;;;;29.21;41.42;98178.41;1793692;79;21010;-52
2021/08/06 03:23:36;;;;;;;2.12;2.02;;;;;;;29.21;41.42;98199.25;1802661;79;21121;-52
2021/08/06 03:26:03;;;;;;;2.40;2.30;;;;;;;29.20;41.43;98193.50;1802484;79;21042;-52
2021/08/06 03:28:30;;;;;;;2.50;2.40;;;;;;;29.20;41.43;98197.06;1797156;79;21537;-53
2021/08/06 03:30:56;;;;;;;2.40;2.20;;;;;;;29.20;41.43;98202.48;1785956;80;21078;-50
2021/08/06 03:33:23;;;;;;;2.10;2.00;;;;;;;29.20;41.43;98193.00;1786053;80;21418;-52
2021/08/06 03:35:50;;;;;;;2.65;2.40;;;;;;;29.21;41.43;98201.95;1763551;80;21200;-53
2021/08/06 03:38:20;;;;;;;2.12;2.02;;;;;;;29.20;41.43;98201.13;1785974;80;21069;-53
2021/08/06 03:40:47;;;;;;;2.58;2.08;;;;;;;29.19;41.42;98205.39;1786217;80;21014;-53
2021/08/06 03:43:15;;;;;;;2.17;2.00;;;;;;;29.20;41.43;98213.32;1763698;80;21069;-53
2021/08/06 03:45:42;;;;;;;2.27;2.17;;;;;;;29.19;41.40;98202.16;1786191;80;21070;-50
2021/08/06 03:48:09;;;;;;;2.50;2.30;;;;;;;29.20;41.43;98205.19;1785995;80;21212;-53
2021/08/06 03:50:36;;;;;;;1.82;1.72;;;;;;;29.19;41.40;98196.74;1785959;80;21133;-53
2021/08/06 03:53:05;;;;;;;2.22;2.12;;;;;;;29.20;41.41;98197.06;1785986;80;21722;-52
2021/08/06 03:55:32;;;;;;;2.10;2.00;;;;;;;29.21;41.40;98191.12;1763755;80;21391;-52
2021/08/06 03:58:00;;;;;;;2.42;2.30;;;;;;;29.21;41.39;98206.84;1785990;80;21101;-52
2021/08/06 04:00:30;;;;;;;2.10;2.00;;;;;;;29.22;41.36;98195.51;1762348;80;21685;-52
2021/08/06 04:02:58;;;;;;;2.02;1.92;;;;;;;29.23;41.35;98212.88;1758357;80;21559;-51
2021/08/06 04:05:25;;;;;;;2.00;1.90;;;;;;;29.25;41.31;98209.47;1752273;81;21072;-53
2021/08/06 04:07:52;;;;;;;2.30;2.10;;;;;;;29.27;41.29;98201.14;1743311;81;21604;-53
2021/08/06 04:10:22;;;;;;;2.10;1.90;;;;;;;29.30;41.23;98195.81;1738653;82;21026;-52
2021/08/06 04:12:50;;;;;;;1.98;1.87;;;;;;;29.37;41.12;98211.55;1738769;82;21175;-53
2021/08/06 04:15:18;;;;;;;1.62;1.50;;;;;;;29.55;40.87;98227.22;1767224;81;21537;-51
2021/08/06 04:17:45;;;;;;;1.90;1.80;;;;;;;29.85;40.39;98229.03;1767723;81;21039;-52
2021/08/06 04:20:11;;;;;;;1.70;1.60;;;;;;;30.26;39.69;98233.89;1767210;81;21992;-53
2021/08/06 04:22:39;;;;;;;1.90;1.80;;;;;;;30.68;38.96;98232.58;1761275;80;21082;-53
2021/08/06 04:25:09;;;;;;;2.02;1.72;;;;;;;30.93;38.37;98231.83;1785998;80;21141;-52
2021/08/06 04:27:36;;;;;;;1.72;1.62;;;;;;;31.17;37.87;98215.85;1786475;80;21054;-53
2021/08/06 04:30:05;;;;;;;2.25;1.67;;;;;;;31.48;37.31;98209.06;1800266;79;21109;-53
2021/08/06 04:32:32;;;;;;;1.95;1.67;;;;;;;31.89;36.64;98211.50;1775456;79;21045;-52
2021/08/06 04:34:58;;;;;;;1.70;1.60;;;;;;;32.30;35.90;98215.00;1802311;79;21081;-52
2021/08/06 04:37:26;;;;;;;2.33;1.50;;;;;;;32.57;35.34;98226.97;1767307;79;21106;-53
2021/08/06 04:39:53;;;;;;;1.90;1.80;;;;;;;32.73;34.94;98228.27;1794268;79;21093;-54
2021/08/06 04:42:19;;;;;;;1.82;1.70;;;;;;;32.74;34.80;98229.40;1794399;79;21113;-53
2021/08/06 04:44:46;;;;;;;1.50;1.40;;;;;;;32.76;34.72;98240.06;1767513;79;22230;-53
2021/08/06 04:47:12;;;;;;;1.85;1.75;;;;;;;32.72;34.74;98244.32;1794323;79;21074;-53
2021/08/06 04:49:39;;;;;;;1.90;1.80;;;;;;;32.63;34.83;98240.22;1767349;79;21176;-53
2021/08/06 04:52:07;;;;;;;1.80;1.70;;;;;;;32.50;34.97;98246.64;1794309;79;21024;-52
2021/08/06 04:54:36;;;;;;;1.70;1.60;;;;;;;32.37;35.13;98245.70;1767368;79;22123;-53
2021/08/06 04:57:04;;;;;;;2.45;1.72;;;;;;;32.25;35.31;98238.52;1802418;79;21010;-53
2021/08/06 04:59:30;;;;;;;1.65;1.55;;;;;;;32.15;35.47;98234.41;1767557;79;21026;-52
2021/08/06 05:01:59;;;;;;;1.77;1.67;;;;;;;32.08;35.61;98239.09;1773998;79;21718;-53
2021/08/06 05:04:25;;;;;;;1.45;1.37;;;;;;;32.01;35.73;98239.12;1720370;81;21035;-49
2021/08/06 05:06:51;;;;;;;1.60;1.50;;;;;;;31.95;35.82;98241.36;1800638;79;21085;-52
2021/08/06 05:09:19;;;;;;;1.60;1.50;;;;;;;31.90;35.91;98247.17;1770578;81;21636;-50
2021/08/06 05:11:47;;;;;;;1.47;1.37;;;;;;;31.85;36.00;98246.47;1801112;79;21570;-53
2021/08/06 05:14:13;;;;;;;1.55;1.45;;;;;;;31.81;36.06;98248.80;1802021;79;21528;-52
2021/08/06 05:16:40;;;;;;;1.50;1.40;;;;;;;31.79;36.09;98251.42;1775720;79;21543;-50
2021/08/06 05:19:08;;;;;;;1.62;1.52;;;;;;;31.76;36.15;98260.05;1802690;79;21025;-52
2021/08/06 05:21:35;;;;;;;1.60;1.50;;;;;;;31.73;36.22;98261.31;1788756;79;21012;-52
2021/08/06 05:24:01;;;;;;;1.50;1.40;;;;;;;31.71;36.27;98275.66;1771241;81;20974;-52
2021/08/06 05:26:28;;;;;;;1.50;1.40;;;;;;;31.67;36.30;98288.02;1771103;81;21832;-53
2021/08/06 05:28:55;;;;;;;1.37;1.27;;;;;;;31.63;36.35;98292.23;1771052;80;21001;-49
2021/08/06 05:31:22;;;;;;;1.85;1.75;;;;;;;31.63;36.38;98301.76;1771112;81;21048;-51
2021/08/06 05:33:49;;;;;;;1.37;1.35;;;;;;;31.60;36.40;98298.11;1745160;81;20958;-52
2021/08/06 05:36:16;;;;;;;1.65;1.55;;;;;;;31.60;36.42;98296.75;1771079;81;20959;-54
2021/08/06 05:38:42;;;;;;;1.70;1.60;;;;;;;31.60;36.45;98303.55;1771126;81;21022;-53
2021/08/06 05:41:09;;;;;;;1.70;1.60;;;;;;;31.59;36.45;98300.52;1770892;81;21076;-50
2021/08/06 05:43:35;;;;;;;1.80;1.70;;;;;;;31.58;36.42;98297.50;1771064;81;21041;-52
2021/08/06 05:46:02;;;;;;;1.52;1.42;;;;;;;31.57;36.46;98291.75;1771173;81;21005;-53
2021/08/06 05:48:31;;;;;;;1.65;1.55;;;;;;;31.57;36.46;98302.12;1745043;81;21571;-53
2021/08/06 05:50:57;;;;;;;1.42;1.32;;;;;;;31.57;36.47;98297.19;1770917;81;21113;-52
2021/08/06 05:53:24;;;;;;;1.40;1.30;;;;;;;31.56;36.48;98303.69;1771237;81;21504;-54
2021/08/06 05:55:59;;;;;;;1.60;1.35;;;;;;;31.55;36.48;98306.09;1745040;81;21045;-51
2021/08/06 05:58:27;;;;;;;1.60;1.50;;;;;;;31.54;36.48;98300.33;1744884;81;21037;-53
2021/08/06 06:00:54;;;;;;;1.35;1.25;;;;;;;31.53;36.50;98306.30;1789665;78;20983;-50
2021/08/06 06:03:25;;;;;;;1.47;1.35;;;;;;;31.52;36.53;98317.39;1793495;78;21220;-53
2021/08/06 06:05:54;;;;;;;1.62;1.52;;;;;;;31.51;36.56;98312.49;1807704;78;21473;-49
2021/08/06 06:08:20;;;;;;;1.95;1.30;;;;;;;31.49;36.60;98324.91;1741763;81;21015;-50
2021/08/06 06:10:47;;;;;;;1.65;1.55;;;;;;;31.46;36.63;98319.91;1786267;80;21198;-52
2021/08/06 06:13:14;;;;;;;2.02;1.47;;;;;;;31.44;36.65;98311.14;1730067;82;21415;-53
2021/08/06 06:15:42;;;;;;;1.87;1.77;;;;;;;31.43;36.66;98324.41;1767940;81;21054;-53
2021/08/06 06:18:09;;;;;;;1.35;1.25;;;;;;;31.41;36.74;98321.08;1767630;81;21011;-52
2021/08/06 06:20:36;;;;;;;1.80;1.57;;;;;;;31.39;36.79;98327.27;1768471;79;21029;-53
2021/08/06 06:23:03;;;;;;;1.70;1.60;;;;;;;31.36;36.84;98330.41;1802877;79;21045;-53
2021/08/06 06:25:30;;;;;;;1.47;1.37;;;;;;;31.35;36.88;98327.38;1803061;79;21064;-52
2021/08/06 06:28:03;;;;;;;1.37;1.27;;;;;;;31.33;36.89;98329.48;1802829;79;21489;-53
2021/08/06 06:30:33;;;;;;;1.60;1.50;;;;;;;31.33;36.93;98326.77;1802417;79;21516;-51
2021/08/06 06:33:01;;;;;;;1.37;1.27;;;;;;;31.31;36.95;98328.88;1802883;79;21072;-51
2021/08/06 06:35:28;;;;;;;1.55;1.50;;;;;;;31.31;36.99;98330.23;1802855;79;21107;-52
2021/08/06 06:37:55;;;;;;;1.30;1.30;;;;;;;31.29;37.00;98323.65;1803096;79;22175;-52
2021/08/06 06:40:23;;;;;;;1.57;1.47;;;;;;;31.28;37.03;98326.58;1775822;79;21909;-52
2021/08/06 06:42:50;;;;;;;1.60;1.50;;;;;;;31.26;37.04;98316.46;1775968;79;20941;-51
2021/08/06 06:45:19;;;;;;;1.65;1.40;;;;;;;31.26;37.04;98317.28;1802663;79;21032;-52
2021/08/06 06:47:48;;;;;;;1.55;1.50;;;;;;;31.25;37.07;98310.70;1802824;79;21531;-52
2021/08/06 06:50:17;;;;;;;1.50;1.40;;;;;;;31.25;37.10;98321.57;1775824;79;21056;-52
2021/08/06 06:52:44;;;;;;;1.40;1.30;;;;;;;31.24;37.13;98324.00;1803073;79;21823;-52
2021/08/06 06:55:11;;;;;;;1.20;1.15;;;;;;;31.23;37.11;98320.97;1802877;79;21064;-53
2021/08/06 06:57:49;;;;;;;1.47;1.37;;;;;;;31.23;37.11;98326.40;1775938;79;21386;-53
2021/08/06 07:00:21;;;;;;;1.52;1.42;;;;;;;31.24;37.13;98325.36;1768918;81;21045;-49
2021/08/06 07:02:47;;;;;;;1.55;1.45;;;;;;;31.25;37.14;98329.72;1771098;81;21026;-48
2021/08/06 07:05:15;;;;;;;1.30;1.20;;;;;;;31.25;37.13;98329.72;1799506;78;21182;-51
2021/08/06 07:07:42;;;;;;;2.55;1.40;;;;;;;31.27;37.07;98322.19;1792541;80;21050;-52
2021/08/06 07:10:10;;;;;;;1.30;1.30;;;;;;;31.29;37.05;98318.22;1792528;80;21010;-52
2021/08/06 07:12:40;;;;;;;3.05;1.70;;;;;;;31.30;37.03;98320.40;1767533;81;21536;-52
2021/08/06 07:15:08;;;;;;;1.35;1.25;;;;;;;31.30;37.01;98307.67;1770393;81;21050;-52
2021/08/06 07:17:37;;;;;;;1.65;1.42;;;;;;;31.32;36.98;98303.38;1714611;81;21095;-51
2021/08/06 07:20:06;;;;;;;1.40;1.30;;;;;;;31.33;36.95;98305.02;1738899;81;20993;-52
2021/08/06 07:22:33;;;;;;;1.60;1.50;;;;;;;31.35;36.94;98306.98;1739243;81;21034;-53
2021/08/06 07:25:02;;;;;;;1.40;1.30;;;;;;;31.37;36.94;98304.91;1769278;79;21019;-47
2021/08/06 07:27:28;;;;;;;1.47;1.37;;;;;;;31.37;36.93;98303.55;1731354;82;21059;-53
2021/08/06 07:29:55;;;;;;;1.25;1.15;;;;;;;31.38;36.91;98315.25;1754149;81;21171;-51
2021/08/06 07:32:22;;;;;;;1.50;1.40;;;;;;;31.38;36.91;98315.25;1784865;80;21002;-51
2021/08/06 07:34:48;;;;;;;1.27;1.22;;;;;;;31.37;36.92;98321.22;1762701;80;21011;-52
2021/08/06 07:37:15;;;;;;;1.30;1.30;;;;;;;31.37;36.93;98315.78;1784958;80;20998;-52
2021/08/06 07:39:42;;;;;;;1.57;1.47;;;;;;;31.36;36.96;98326.88;1785044;80;21280;-51
2021/08/06 07:42:09;;;;;;;1.60;1.50;;;;;;;31.34;36.97;98338.46;1784690;80;21064;-49
2021/08/06 07:44:36;;;;;;;1.30;1.20;;;;;;;31.32;37.01;98327.83;1784871;80;21019;-51
2021/08/06 07:47:03;;;;;;;1.70;1.30;;;;;;;31.30;37.07;98332.63;1784759;80;21013;-52
2021/08/06 07:49:30;;;;;;;2.33;1.27;;;;;;;31.26;37.09;98339.56;1762846;80;21073;-52
2021/08/06 07:51:57;;;;;;;1.85;1.37;;;;;;;31.25;37.15;98348.75;1762575;80;21076;-49
2021/08/06 07:54:25;;;;;;;1.30;1.30;;;;;;;31.22;37.21;98350.53;1785218;80;21095;-52
2021/08/06 07:56:54;;;;;;;1.42;1.32;;;;;;;31.19;37.25;98348.27;1785312;80;21050;-52
2021/08/06 07:59:26;;;;;;;1.30;1.20;;;;;;;31.18;37.28;98342.52;1785138;80;21502;-51
2021/08/06 08:02:00;;;;;;;2.12;1.47;;;;;;;31.15;37.32;98335.61;1811050;78;21038;-50
2021/08/06 08:04:32;;;;;;;1.60;1.50;;;;;;;31.14;37.38;98331.78;1783950;80;21565;-50
2021/08/06 08:07:04;;;;;;;1.67;1.57;;;;;;;31.13;37.38;98331.45;1783300;80;21635;-50
2021/08/06 08:09:35;;;;;;;1.30;1.20;;;;;;;31.14;37.39;98349.44;1751505;81;20992;-52
2021/08/06 08:12:05;;;;;;;2.52;1.37;;;;;;;31.14;37.40;98350.27;1773012;78;21018;-50
2021/08/06 08:14:33;;;;;;;1.40;1.30;;;;;;;31.15;37.39;98345.66;1794077;78;21022;-51
2021/08/06 08:17:01;;;;;;;1.40;1.30;;;;;;;31.17;37.38;98343.55;1817220;78;21900;-51
2021/08/06 08:19:28;;;;;;;1.50;1.40;;;;;;;31.17;37.37;98359.85;1794069;78;21211;-52
2021/08/06 08:21:54;;;;;;;1.25;1.22;;;;;;;31.18;37.33;98361.53;1781565;78;21014;-51
2021/08/06 08:24:21;;;;;;;1.32;1.25;;;;;;;31.21;37.31;98337.48;1756587;81;21034;-49
2021/08/06 08:26:49;;;;;;;1.52;1.42;;;;;;;31.21;37.29;98330.69;1745570;81;21744;-52
2021/08/06 08:29:16;;;;;;;1.72;1.62;;;;;;;31.24;37.26;98324.00;1746145;79;21449;-51
2021/08/06 08:31:44;;;;;;;1.27;1.20;;;;;;;31.25;37.23;98320.22;1769565;81;21540;-51
2021/08/06 08:34:11;;;;;;;1.50;1.40;;;;;;;31.26;37.19;98317.82;1749271;81;22132;-51
2021/08/06 08:36:37;;;;;;;1.35;1.25;;;;;;;31.29;37.15;98321.47;1769450;81;21081;-51
2021/08/06 08:39:05;;;;;;;1.12;1.10;;;;;;;31.31;37.14;98309.84;1749301;81;21022;-52
2021/08/06 08:41:33;;;;;;;1.30;1.20;;;;;;;31.34;37.10;98321.65;1749731;81;21061;-51
2021/08/06 08:44:01;;;;;;;1.40;1.30;;;;;;;31.35;37.07;98328.73;1749419;81;21073;-51
2021/08/06 08:46:30;;;;;;;1.50;1.40;;;;;;;31.38;37.05;98331.02;1769280;81;21053;-51
2021/08/06 08:49:00;;;;;;;1.45;1.35;;;;;;;31.39;37.02;98325.91;1769557;81;21073;-51
2021/08/06 08:51:29;;;;;;;1.60;1.22;;;;;;;31.41;37.01;98328.41;1749625;81;21045;-52
2021/08/06 08:54:00;;;;;;;1.60;1.50;;;;;;;31.41;37.00;98329.23;1769676;81;21021;-49
2021/08/06 08:56:29;;;;;;;1.55;1.20;;;;;;;31.42;36.96;98330.06;1769763;81;21132;-51
2021/08/06 08:58:55;;;;;;;1.40;1.30;;;;;;;31.44;36.94;98326.63;1769734;81;21567;-51
2021/08/06 09:01:22;;;;;;;1.57;1.10;;;;;;;31.45;36.88;98316.86;1780060;80;21532;-51
2021/08/06 09:03:49;;;;;;;1.40;1.22;;;;;;;31.47;36.89;98324.80;1761177;81;21539;-51
2021/08/06 09:06:17;;;;;;;1.20;1.10;;;;;;;31.48;36.87;98325.95;1737071;81;21022;-50
2021/08/06 09:08:45;;;;;;;1.42;1.32;;;;;;;31.49;36.85;98330.34;1712671;81;21874;-52
2021/08/06 09:11:28;;;;;;;;;;;;;;;31.51;36.84;98328.80;1738940;81;21037;-48
2021/08/06 09:14:22;;;;;;;1.40;1.30;;;;;;;31.52;36.78;98329.63;1707305;81;20202;-48
2021/08/06 09:17:10;;;;;;;1.87;1.45;;;;;;;31.54;36.75;98337.03;1761248;81;21022;-50
2021/08/06 09:19:46;;;;;;;1.50;1.40;;;;;;;31.55;36.70;98331.92;1761167;81;21073;-49
2021/08/06 09:22:21;;;;;;;1.82;1.22;;;;;;;31.58;36.70;98345.08;1754857;81;21065;-51
2021/08/06 09:25:09;;;;;;;1.40;1.30;;;;;;;31.59;36.67;98350.80;1756653;81;21018;-52
2021/08/06 09:27:45;;;;;;;1.40;1.30;;;;;;;31.61;36.63;98347.37;1756683;81;21030;-49
2021/08/06 09:30:32;;;;;;;1.67;1.30;;;;;;;31.63;36.59;98331.66;1732412;82;21130;-52
2021/08/06 09:32:58;;;;;;;1.40;1.30;;;;;;;31.65;36.60;98332.27;1740336;81;21068;-49
2021/08/06 09:35:30;;;;;;;1.90;1.57;;;;;;;31.67;36.60;98342.40;1762567;81;22880;-51
2021/08/06 09:37:57;;;;;;;1.40;1.30;;;;;;;31.67;36.55;98330.16;1766016;81;21494;-46
2021/08/06 09:40:27;;;;;;;1.67;1.32;;;;;;;31.69;36.53;98317.20;1762611;81;20985;-50
2021/08/06 09:43:03;;;;;;;1.22;1.15;;;;;;;31.70;36.52;98317.49;1766044;81;21311;-51
2021/08/06 09:45:39;;;;;;;1.75;1.10;;;;;;;31.71;36.49;98309.66;1762951;81;21044;-49
2021/08/06 09:48:08;;;;;;;1.35;1.25;;;;;;;31.71;36.49;98302.86;1736638;82;21158;-51
2021/08/06 09:50:38;;;;;;;1.35;1.30;;;;;;;31.72;36.46;98303.14;1736593;82;21675;-51
2021/08/06 09:53:06;;;;;;;1.40;1.20;;;;;;;31.72;36.47;98303.14;1706604;84;21302;-51
2021/08/06 09:55:37;;;;;;;3.12;1.40;;;;;;;31.74;36.45;98296.98;1679021;84;21100;-49
2021/08/06 09:58:08;;;;;;;1.72;1.62;;;;;;;31.74;36.42;98292.91;1706368;84;21075;-50
2021/08/06 10:00:41;;;;;;;1.47;1.37;;;;;;;31.74;36.42;98276.59;1701398;84;21070;-50
2021/08/06 10:03:07;;;;;;;1.52;1.42;;;;;;;31.75;36.41;98266.00;1678545;85;21284;-51
2021/08/06 10:05:34;;;;;;;1.92;1.50;;;;;;;31.74;36.42;98265.71;1693050;83;21063;-52
2021/08/06 10:08:02;;;;;;;2.02;1.70;;;;;;;31.73;36.43;98265.39;1737091;82;21319;-50
2021/08/06 10:10:36;;;;;;;1.57;1.22;;;;;;;31.73;36.43;98261.31;1736931;82;21139;-52
2021/08/06 10:13:03;;;;;;;1.30;1.20;;;;;;;31.73;36.46;98263.20;1784969;79;21102;-52
2021/08/06 10:15:30;;;;;;;2.85;1.40;;;;;;;31.72;36.48;98267.80;1799305;79;20998;-52
2021/08/06 10:17:58;;;;;;;1.40;1.30;;;;;;;31.72;36.48;98255.55;1799250;79;20986;-48
2021/08/06 10:20:27;;;;;;;2.12;1.60;;;;;;;31.72;36.48;98251.48;1799365;79;20983;-52
2021/08/06 10:22:54;;;;;;;1.72;1.60;;;;;;;31.73;36.46;98247.72;1750409;79;21057;-51
2021/08/06 10:25:22;;;;;;;1.60;1.30;;;;;;;31.75;36.46;98243.42;1750118;82;21090;-52
2021/08/06 10:27:49;;;;;;;1.62;1.50;;;;;;;31.76;36.45;98246.45;1749906;82;21006;-52
2021/08/06 10:30:35;;;;;;;1.82;1.47;;;;;;;31.78;36.43;98244.34;1756467;80;21347;-50
2021/08/06 10:33:24;;;;;;;1.62;1.45;;;;;;;31.79;36.39;98233.24;1782508;80;21003;-51
2021/08/06 10:36:05;;;;;;;1.90;1.22;;;;;;;31.81;36.37;98239.28;1759594;80;21532;-52
2021/08/06 10:38:43;;;;;;;2.77;1.75;;;;;;;31.82;36.36;98232.77;1782590;80;21881;-49
2021/08/06 10:41:17;;;;;;;1.70;1.60;;;;;;;31.84;36.33;98231.20;1782294;80;21022;-51
2021/08/06 10:44:04;;;;;;;2.58;2.00;;;;;;;31.87;36.31;98225.85;1782500;80;21042;-51
2021/08/06 10:47:04;;;;;;;1.50;1.40;;;;;;;31.87;36.29;98231.30;1782984;80;20981;-51
2021/08/06 10:49:30;;;;;;;1.60;1.50;;;;;;;31.87;36.30;98245.72;1778358;80;21039;-52
2021/08/06 10:52:21;;;;;;;1.47;1.37;;;;;;;31.87;36.29;98248.97;1782377;80;21484;-50
2021/08/06 10:54:48;;;;;;;1.50;1.40;;;;;;;31.88;36.29;98250.11;1782450;80;21030;-52
2021/08/06 10:57:29;;;;;;;1.70;1.60;;;;;;;31.89;36.28;98254.48;1782342;80;20998;-51
2021/08/06 10:59:56;;;;;;;1.45;1.35;;;;;;;31.89;36.28;98255.84;1782440;80;22118;-52
2021/08/06 11:02:37;;;;;;;2.17;1.20;;;;;;;31.90;36.28;98255.33;1793936;78;21528;-51
2021/08/06 11:05:36;;;;;;;1.60;1.50;;;;;;;31.88;36.29;98251.47;1780514;80;21109;-49
2021/08/06 11:08:24;;;;;;;1.52;1.30;;;;;;;31.89;36.29;98247.67;1775822;79;21054;-51
2021/08/06 11:10:51;;;;;;;1.92;1.40;;;;;;;31.89;36.30;98250.94;1744397;81;21065;-53
2021/08/06 11:13:38;;;;;;;1.70;1.60;;;;;;;31.90;36.29;98281.17;1800634;79;21101;-53
2021/08/06 11:16:12;;;;;;;1.27;1.17;;;;;;;31.89;36.33;98268.62;1769251;79;21078;-52
2021/08/06 11:18:45;;;;;;;2.87;1.50;;;;;;;31.89;36.30;98267.25;1772777;79;21601;-51
2021/08/06 11:21:13;;;;;;;1.42;1.32;;;;;;;31.89;36.31;98274.05;1795908;79;22233;-53
2021/08/06 11:23:40;;;;;;;1.50;1.40;;;;;;;31.89;36.33;98273.52;1785245;80;21672;-52
2021/08/06 11:26:11;;;;;;;1.47;1.37;;;;;;;31.90;36.34;98275.73;1784925;80;21114;-53
2021/08/06 11:28:37;;;;;;;1.40;1.30;;;;;;;31.88;36.34;98266.43;1762800;80;21168;-52
2021/08/06 11:31:20;;;;;;;1.40;1.30;;;;;;;31.89;36.34;98268.08;1784043;79;21160;-53
2021/08/06 11:34:01;;;;;;;1.40;1.30;;;;;;;31.91;36.32;98276.02;1777479;80;48260;-51
2021/08/06 11:36:28;;;;;;;1.57;1.47;;;;;;;31.91;36.29;98270.08;1757466;80;21074;-52
2021/08/06 11:39:00;;;;;;;2.50;1.35;;;;;;;31.92;36.29;98266.82;1757453;80;20987;-51
2021/08/06 11:41:23;;;;;;;1.35;1.25;;;;;;;31.93;36.27;98267.13;1776825;80;21019;-52
2021/08/06 11:43:49;;;;;;;2.50;1.45;;;;;;;31.95;36.30;98277.27;1777536;80;21158;-53
2021/08/06 11:46:16;;;;;;;1.27;1.17;;;;;;;31.96;36.25;98272.11;1777595;80;20999;-53